PWSweather.com
Personal Weather Stations
Station Observations
KILMORRI1
Goose Lake, Morris, IL 60450

Goose LakeMorris, IL 60450

Lat: 41.34, Lon: -88.3

Elevation: 523

Station Type:

www.gooselakeweather.com

High Low Average
Temperature 30.5°F-0.8°C 11.9°F-11.2°C 25.7°F-3.5°C
Dew Point 26.4°F-3.1°C 4.9°F-15.1°C 21.6°F-5.8°C
Winds 15.0 mph 24.1 kmh 3.5 mph 5.6 kmh 9.0 mph SE14.5 kmh SE
Wind Gusts 24.2 mph38.9 kmh 3.5 mph5.6 kmh 14.0 mph22.5 kmh
Humidity 91% 71% 84%
Pressure 30.13 in1020.3 mb 29.94 in1013.9 mb -
Precipitation 0.00 in0.0 mm - -
Hour Temp Dew Point Humidity Winds Wind Gusts Pressure Precip Precip Rate Daily Precip Total
12:00 AM 30.5°F-0.8°C 25.3°F-3.7°C 81% 8.1 mph ENE13.0 kmh ENE 12.7 mph20.4 kmh 30.10 in1019.3 mb - 0.00 in0.0 mm 0.00 in0.0 mm
12:10 AM 30.4°F-0.9°C 25.3°F-3.7°C 81% 6.9 mph ENE11.1 kmh ENE 9.2 mph14.8 kmh 30.10 in1019.3 mb - 0.00 in0.0 mm 0.00 in0.0 mm
12:20 AM 30.4°F-0.9°C 25.3°F-3.7°C 81% 5.8 mph NE9.3 kmh NE 8.1 mph13.0 kmh 30.09 in1019.0 mb - 0.00 in0.0 mm 0.00 in0.0 mm
12:30 AM 30.4°F-0.9°C 25.3°F-3.7°C 81% 8.1 mph NE13.0 kmh NE 11.5 mph18.5 kmh 30.08 in1018.6 mb - 0.00 in0.0 mm 0.00 in0.0 mm
12:40 AM 30.4°F-0.9°C 25.6°F-3.6°C 82% 8.1 mph ENE13.0 kmh ENE 13.8 mph22.2 kmh 30.07 in1018.3 mb - 0.00 in0.0 mm 0.00 in0.0 mm
12:50 AM 30.5°F-0.8°C 25.6°F-3.6°C 82% 8.1 mph NE13.0 kmh NE 12.7 mph20.4 kmh 30.08 in1018.6 mb - 0.00 in0.0 mm 0.00 in0.0 mm
01:00 AM 30.5°F-0.8°C 25.7°F-3.5°C 82% 9.2 mph ENE14.8 kmh ENE 12.7 mph20.4 kmh 30.07 in1018.3 mb - 0.00 in0.0 mm 0.00 in0.0 mm
01:10 AM 30.4°F-0.9°C 25.5°F-3.6°C 82% 6.9 mph ENE11.1 kmh ENE 13.8 mph22.2 kmh 30.07 in1018.3 mb - 0.00 in0.0 mm 0.00 in0.0 mm
01:20 AM 30.3°F-0.9°C 25.8°F-3.4°C 83% 9.2 mph ENE14.8 kmh ENE 15.0 mph24.1 kmh 30.06 in1017.9 mb - 0.00 in0.0 mm 0.00 in0.0 mm
01:30 AM 30.3°F-0.9°C 25.8°F-3.4°C 83% 9.2 mph ENE14.8 kmh ENE 11.5 mph18.5 kmh 30.06 in1017.9 mb - 0.00 in0.0 mm 0.00 in0.0 mm
01:40 AM 30.3°F-0.9°C 25.8°F-3.4°C 83% 9.2 mph ENE14.8 kmh ENE 9.2 mph14.8 kmh 30.06 in1017.9 mb - 0.00 in0.0 mm 0.00 in0.0 mm
01:50 AM 30.2°F-1.0°C 25.9°F-3.4°C 84% 8.1 mph ENE13.0 kmh ENE 11.5 mph18.5 kmh 30.05 in1017.6 mb - 0.00 in0.0 mm 0.00 in0.0 mm
02:00 AM 30.2°F-1.0°C 26.0°F-3.3°C 84% 10.4 mph ENE16.7 kmh ENE 13.8 mph22.2 kmh 30.04 in1017.3 mb - 0.00 in0.0 mm 0.00 in0.0 mm
02:10 AM 30.2°F-1.0°C 25.9°F-3.4°C 84% 9.2 mph E14.8 kmh E 17.3 mph27.8 kmh 30.04 in1017.3 mb - 0.00 in0.0 mm 0.00 in0.0 mm
02:20 AM 30.2°F-1.0°C 25.9°F-3.4°C 84% 9.2 mph ENE14.8 kmh ENE 13.8 mph22.2 kmh 30.04 in1017.3 mb - 0.00 in0.0 mm 0.00 in0.0 mm
02:30 AM 30.2°F-1.0°C 26.0°F-3.3°C 84% 12.7 mph ENE20.4 kmh ENE 17.3 mph27.8 kmh 30.04 in1017.3 mb - 0.00 in0.0 mm 0.00 in0.0 mm
02:40 AM 30.2°F-1.0°C 25.9°F-3.4°C 84% 9.2 mph ENE14.8 kmh ENE 16.1 mph25.9 kmh 30.04 in1017.3 mb - 0.00 in0.0 mm 0.00 in0.0 mm
02:50 AM 30.3°F-0.9°C 26.3°F-3.2°C 85% 12.7 mph ENE20.4 kmh ENE 16.1 mph25.9 kmh 30.03 in1016.9 mb - 0.00 in0.0 mm 0.00 in0.0 mm
03:00 AM 30.2°F-1.0°C 26.0°F-3.3°C 84% 12.7 mph ENE20.4 kmh ENE 17.3 mph27.8 kmh 30.02 in1016.6 mb - 0.00 in0.0 mm 0.00 in0.0 mm
03:10 AM 30.3°F-0.9°C 26.4°F-3.1°C 85% 12.7 mph ENE20.4 kmh ENE 17.3 mph27.8 kmh 30.02 in1016.6 mb - 0.00 in0.0 mm 0.00 in0.0 mm
03:20 AM 30.3°F-0.9°C 26.4°F-3.1°C 85% 10.4 mph ENE16.7 kmh ENE 16.1 mph25.9 kmh 30.02 in1016.6 mb - 0.00 in0.0 mm 0.00 in0.0 mm
03:30 AM 30.3°F-0.9°C 26.3°F-3.2°C 85% 12.7 mph ENE20.4 kmh ENE 17.3 mph27.8 kmh 30.01 in1016.3 mb - 0.00 in0.0 mm 0.00 in0.0 mm
03:40 AM 30.1°F-1.1°C 26.4°F-3.1°C 86% 13.8 mph ENE22.2 kmh ENE 23.0 mph37.0 kmh 30.00 in1015.9 mb - 0.00 in0.0 mm 0.00 in0.0 mm
03:50 AM 29.8°F-1.2°C 26.4°F-3.1°C 87% 10.4 mph ENE16.7 kmh ENE 16.1 mph25.9 kmh 30.00 in1015.9 mb - 0.00 in0.0 mm 0.00 in0.0 mm
04:00 AM 29.5°F-1.4°C 26.4°F-3.1°C 88% 10.4 mph ENE16.7 kmh ENE 16.1 mph25.9 kmh 29.99 in1015.6 mb - 0.00 in0.0 mm 0.00 in0.0 mm
04:10 AM 29.4°F-1.4°C 26.3°F-3.2°C 88% 12.7 mph ENE20.4 kmh ENE 17.3 mph27.8 kmh 29.99 in1015.6 mb - 0.00 in0.0 mm 0.00 in0.0 mm
04:20 AM 29.3°F-1.5°C 26.4°F-3.1°C 89% 9.2 mph ENE14.8 kmh ENE 13.8 mph22.2 kmh 30.00 in1015.9 mb - 0.00 in0.0 mm 0.00 in0.0 mm
04:30 AM 29.1°F-1.6°C 26.3°F-3.2°C 89% 10.4 mph ENE16.7 kmh ENE 13.8 mph22.2 kmh 29.99 in1015.6 mb - 0.00 in0.0 mm 0.00 in0.0 mm
04:40 AM 29.0°F-1.7°C 26.2°F-3.2°C 89% 8.1 mph NE13.0 kmh NE 11.5 mph18.5 kmh 29.99 in1015.6 mb - 0.00 in0.0 mm 0.00 in0.0 mm
04:50 AM 28.8°F-1.8°C 26.2°F-3.2°C 90% 5.8 mph NE9.3 kmh NE 8.1 mph13.0 kmh 29.98 in1015.2 mb - 0.00 in0.0 mm 0.00 in0.0 mm
05:00 AM 28.6°F-1.9°C 26.0°F-3.3°C 90% 6.9 mph NE11.1 kmh NE 9.2 mph14.8 kmh 29.98 in1015.2 mb - 0.00 in0.0 mm 0.00 in0.0 mm
05:10 AM 28.5°F-1.9°C 25.9°F-3.4°C 90% 6.9 mph ENE11.1 kmh ENE 11.5 mph18.5 kmh 29.98 in1015.2 mb - 0.00 in0.0 mm 0.00 in0.0 mm
05:20 AM 28.4°F-2.0°C 25.9°F-3.4°C 90% 5.8 mph NE9.3 kmh NE 9.2 mph14.8 kmh 29.99 in1015.6 mb - 0.00 in0.0 mm 0.00 in0.0 mm
05:30 AM 28.3°F-2.1°C 25.7°F-3.5°C 90% 6.9 mph NE11.1 kmh NE 10.4 mph16.7 kmh 29.98 in1015.2 mb - 0.00 in0.0 mm 0.00 in0.0 mm
05:40 AM 28.3°F-2.1°C 25.7°F-3.5°C 90% 9.2 mph NE14.8 kmh NE 13.8 mph22.2 kmh 29.98 in1015.2 mb - 0.00 in0.0 mm 0.00 in0.0 mm
05:50 AM 28.3°F-2.1°C 25.7°F-3.5°C 90% 8.1 mph NE13.0 kmh NE 11.5 mph18.5 kmh 29.98 in1015.2 mb - 0.00 in0.0 mm 0.00 in0.0 mm
06:00 AM 28.3°F-2.1°C 26.0°F-3.3°C 91% 5.8 mph NE9.3 kmh NE 8.1 mph13.0 kmh 29.98 in1015.2 mb - 0.00 in0.0 mm 0.00 in0.0 mm
06:10 AM 28.3°F-2.1°C 26.0°F-3.3°C 91% 4.6 mph NE7.4 kmh NE 9.2 mph14.8 kmh 29.98 in1015.2 mb - 0.00 in0.0 mm 0.00 in0.0 mm
06:20 AM 28.1°F-2.2°C 25.8°F-3.4°C 91% 6.9 mph NNE11.1 kmh NNE 11.5 mph18.5 kmh 29.98 in1015.2 mb - 0.00 in0.0 mm 0.00 in0.0 mm
06:30 AM 28.1°F-2.2°C 25.8°F-3.4°C 91% 8.1 mph NE13.0 kmh NE 13.8 mph22.2 kmh 29.98 in1015.2 mb - 0.00 in0.0 mm 0.00 in0.0 mm
06:40 AM 27.9°F-2.3°C 25.6°F-3.6°C 91% 8.1 mph NE13.0 kmh NE 12.7 mph20.4 kmh 29.98 in1015.2 mb - 0.00 in0.0 mm 0.00 in0.0 mm
06:50 AM 27.9°F-2.3°C 25.6°F-3.6°C 91% 6.9 mph NE11.1 kmh NE 13.8 mph22.2 kmh 29.99 in1015.6 mb - 0.00 in0.0 mm 0.00 in0.0 mm
07:00 AM 27.8°F-2.3°C 25.5°F-3.6°C 91% 6.9 mph NE11.1 kmh NE 15.0 mph24.1 kmh 29.99 in1015.6 mb - 0.00 in0.0 mm 0.00 in0.0 mm
07:10 AM 27.8°F-2.3°C 25.5°F-3.6°C 91% 6.9 mph NE11.1 kmh NE 12.7 mph20.4 kmh 29.99 in1015.6 mb - 0.00 in0.0 mm 0.00 in0.0 mm
07:20 AM 27.6°F-2.4°C 25.3°F-3.7°C 91% 9.2 mph NE14.8 kmh NE 11.5 mph18.5 kmh 30.00 in1015.9 mb - 0.00 in0.0 mm 0.00 in0.0 mm
07:30 AM 27.6°F-2.4°C 25.3°F-3.7°C 91% 6.9 mph NE11.1 kmh NE 11.5 mph18.5 kmh 29.99 in1015.6 mb - 0.00 in0.0 mm 0.00 in0.0 mm
07:40 AM 27.6°F-2.4°C 25.3°F-3.7°C 91% 8.1 mph NE13.0 kmh NE 16.1 mph25.9 kmh 29.99 in1015.6 mb - 0.00 in0.0 mm 0.00 in0.0 mm
07:50 AM 27.6°F-2.4°C 25.3°F-3.7°C 91% 9.2 mph NE14.8 kmh NE 16.1 mph25.9 kmh 29.99 in1015.6 mb - 0.00 in0.0 mm 0.00 in0.0 mm
08:00 AM 27.6°F-2.4°C 25.3°F-3.7°C 91% 10.4 mph NE16.7 kmh NE 15.0 mph24.1 kmh 29.99 in1015.6 mb - 0.00 in0.0 mm 0.00 in0.0 mm
08:10 AM 27.6°F-2.4°C 25.3°F-3.7°C 91% 8.1 mph NE13.0 kmh NE 16.1 mph25.9 kmh 29.99 in1015.6 mb - 0.00 in0.0 mm 0.00 in0.0 mm
08:20 AM 27.6°F-2.4°C 25.3°F-3.7°C 91% 9.2 mph NE14.8 kmh NE 16.1 mph25.9 kmh 29.98 in1015.2 mb - 0.00 in0.0 mm 0.00 in0.0 mm
08:30 AM 27.6°F-2.4°C 25.3°F-3.7°C 91% 8.1 mph NE13.0 kmh NE 11.5 mph18.5 kmh 29.98 in1015.2 mb - 0.00 in0.0 mm 0.00 in0.0 mm
08:40 AM 27.6°F-2.4°C 25.3°F-3.7°C 91% 10.4 mph NE16.7 kmh NE 12.7 mph20.4 kmh 29.98 in1015.2 mb - 0.00 in0.0 mm 0.00 in0.0 mm
08:50 AM 27.6°F-2.4°C 25.3°F-3.7°C 91% 6.9 mph NE11.1 kmh NE 12.7 mph20.4 kmh 29.98 in1015.2 mb - 0.00 in0.0 mm 0.00 in0.0 mm
09:00 AM 27.4°F-2.6°C 25.1°F-3.8°C 91% 9.2 mph NE14.8 kmh NE 11.5 mph18.5 kmh 29.99 in1015.6 mb - 0.00 in0.0 mm 0.00 in0.0 mm
09:10 AM 27.3°F-2.6°C 25.0°F-3.9°C 91% 5.8 mph NE9.3 kmh NE 12.7 mph20.4 kmh 29.99 in1015.6 mb - 0.00 in0.0 mm 0.00 in0.0 mm
09:20 AM 27.4°F-2.6°C 25.1°F-3.8°C 91% 9.2 mph NE14.8 kmh NE 19.6 mph31.5 kmh 29.98 in1015.2 mb - 0.00 in0.0 mm 0.00 in0.0 mm
09:30 AM 27.5°F-2.5°C 25.2°F-3.8°C 91% 6.9 mph NE11.1 kmh NE 13.8 mph22.2 kmh 29.98 in1015.2 mb - 0.00 in0.0 mm 0.00 in0.0 mm
09:40 AM 27.5°F-2.5°C 25.2°F-3.8°C 91% 10.4 mph NE16.7 kmh NE 12.7 mph20.4 kmh 29.98 in1015.2 mb - 0.00 in0.0 mm 0.00 in0.0 mm
09:50 AM 27.7°F-2.4°C 25.4°F-3.7°C 91% 8.1 mph NE13.0 kmh NE 11.5 mph18.5 kmh 29.99 in1015.6 mb - 0.00 in0.0 mm 0.00 in0.0 mm
10:00 AM 27.7°F-2.4°C 25.2°F-3.8°C 90% 8.1 mph NE13.0 kmh NE 10.4 mph16.7 kmh 30.01 in1016.3 mb - 0.00 in0.0 mm 0.00 in0.0 mm
10:10 AM 27.8°F-2.3°C 25.2°F-3.8°C 90% 8.1 mph NE13.0 kmh NE 17.3 mph27.8 kmh 30.02 in1016.6 mb - 0.00 in0.0 mm 0.00 in0.0 mm
10:20 AM 27.8°F-2.3°C 25.2°F-3.8°C 90% 8.1 mph NE13.0 kmh NE 11.5 mph18.5 kmh 30.02 in1016.6 mb - 0.00 in0.0 mm 0.00 in0.0 mm
10:30 AM 27.9°F-2.3°C 25.3°F-3.7°C 90% 5.8 mph NE9.3 kmh NE 11.5 mph18.5 kmh 30.00 in1015.9 mb - 0.00 in0.0 mm 0.00 in0.0 mm
10:40 AM 27.7°F-2.4°C 24.9°F-3.9°C 89% 8.1 mph NNE13.0 kmh NNE 11.5 mph18.5 kmh 30.00 in1015.9 mb - 0.00 in0.0 mm 0.00 in0.0 mm
10:50 AM 27.8°F-2.3°C 25.0°F-3.9°C 89% 9.2 mph NE14.8 kmh NE 13.8 mph22.2 kmh 29.99 in1015.6 mb - 0.00 in0.0 mm 0.00 in0.0 mm
11:00 AM 27.8°F-2.3°C 24.7°F-4.1°C 88% 9.2 mph NE14.8 kmh NE 15.0 mph24.1 kmh 30.00 in1015.9 mb - 0.00 in0.0 mm 0.00 in0.0 mm
11:10 AM 27.8°F-2.3°C 24.4°F-4.2°C 87% 10.4 mph NNE16.7 kmh NNE 23.0 mph37.0 kmh 30.01 in1016.3 mb - 0.00 in0.0 mm 0.00 in0.0 mm
11:20 AM 27.6°F-2.4°C 24.2°F-4.3°C 87% 9.2 mph NE14.8 kmh NE 10.4 mph16.7 kmh 30.02 in1016.6 mb - 0.00 in0.0 mm 0.00 in0.0 mm
11:30 AM 27.4°F-2.6°C 24.1°F-4.4°C 87% 10.4 mph NE16.7 kmh NE 15.0 mph24.1 kmh 30.02 in1016.6 mb - 0.00 in0.0 mm 0.00 in0.0 mm
11:40 AM 27.2°F-2.7°C 23.8°F-4.6°C 87% 8.1 mph NE13.0 kmh NE 16.1 mph25.9 kmh 30.01 in1016.3 mb - 0.00 in0.0 mm 0.00 in0.0 mm
11:50 AM 27.2°F-2.7°C 24.1°F-4.4°C 88% 6.9 mph NE11.1 kmh NE 9.2 mph14.8 kmh 30.02 in1016.6 mb - 0.00 in0.0 mm 0.00 in0.0 mm
12:00 PM 27.7°F-2.4°C 24.4°F-4.2°C 87% 5.8 mph NE9.3 kmh NE 6.9 mph11.1 kmh 30.01 in1016.3 mb - 0.00 in0.0 mm 0.00 in0.0 mm
12:10 PM 28.1°F-2.2°C 24.7°F-4.1°C 87% 8.1 mph NE13.0 kmh NE 15.0 mph24.1 kmh 30.01 in1016.3 mb - 0.00 in0.0 mm 0.00 in0.0 mm
12:20 PM 28.2°F-2.1°C 24.5°F-4.2°C 86% 8.1 mph NNE13.0 kmh NNE 13.8 mph22.2 kmh 30.01 in1016.3 mb - 0.00 in0.0 mm 0.00 in0.0 mm
12:30 PM 28.0°F-2.2°C 24.1°F-4.4°C 85% 6.9 mph NE11.1 kmh NE 11.5 mph18.5 kmh 30.01 in1016.3 mb - 0.00 in0.0 mm 0.00 in0.0 mm
12:40 PM 28.2°F-2.1°C 24.0°F-4.4°C 84% 10.4 mph NE16.7 kmh NE 13.8 mph22.2 kmh 30.00 in1015.9 mb - 0.00 in0.0 mm 0.00 in0.0 mm
12:50 PM 28.0°F-2.2°C 23.8°F-4.6°C 84% 9.2 mph NNE14.8 kmh NNE 15.0 mph24.1 kmh 30.00 in1015.9 mb - 0.00 in0.0 mm 0.00 in0.0 mm
01:00 PM 27.8°F-2.3°C 23.6°F-4.7°C 84% 9.2 mph NE14.8 kmh NE 15.0 mph24.1 kmh 29.99 in1015.6 mb - 0.00 in0.0 mm 0.00 in0.0 mm
01:10 PM 27.8°F-2.3°C 23.6°F-4.7°C 84% 10.4 mph NE16.7 kmh NE 11.5 mph18.5 kmh 29.98 in1015.2 mb - 0.00 in0.0 mm 0.00 in0.0 mm
01:20 PM 27.9°F-2.3°C 23.7°F-4.6°C 84% 8.1 mph NE13.0 kmh NE 13.8 mph22.2 kmh 29.98 in1015.2 mb - 0.00 in0.0 mm 0.00 in0.0 mm
01:30 PM 27.8°F-2.3°C 23.3°F-4.8°C 83% 8.1 mph NE13.0 kmh NE 11.5 mph18.5 kmh 29.97 in1014.9 mb - 0.00 in0.0 mm 0.00 in0.0 mm
01:40 PM 27.9°F-2.3°C 23.4°F-4.8°C 83% 8.1 mph NNE13.0 kmh NNE 24.2 mph38.9 kmh 29.97 in1014.9 mb - 0.00 in0.0 mm 0.00 in0.0 mm
01:50 PM 27.6°F-2.4°C 23.1°F-4.9°C 83% 12.7 mph NNE20.4 kmh NNE 24.2 mph38.9 kmh 29.96 in1014.6 mb - 0.00 in0.0 mm 0.00 in0.0 mm
02:00 PM 27.6°F-2.4°C 23.1°F-4.9°C 83% 10.4 mph NE16.7 kmh NE 15.0 mph24.1 kmh 29.96 in1014.6 mb - 0.00 in0.0 mm 0.00 in0.0 mm
02:10 PM 27.4°F-2.6°C 23.0°F-5.0°C 83% 12.7 mph NNE20.4 kmh NNE 19.6 mph31.5 kmh 29.96 in1014.6 mb - 0.00 in0.0 mm 0.00 in0.0 mm
02:20 PM 27.4°F-2.6°C 22.9°F-5.1°C 83% 15.0 mph NNE24.1 kmh NNE 19.6 mph31.5 kmh 29.95 in1014.2 mb - 0.00 in0.0 mm 0.00 in0.0 mm
02:30 PM 27.2°F-2.7°C 22.7°F-5.2°C 83% 5.8 mph N9.3 kmh N 9.2 mph14.8 kmh 29.96 in1014.6 mb - 0.00 in0.0 mm 0.00 in0.0 mm
02:40 PM 27.1°F-2.7°C 22.6°F-5.2°C 83% 11.5 mph NNE18.5 kmh NNE 19.6 mph31.5 kmh 29.95 in1014.2 mb - 0.00 in0.0 mm 0.00 in0.0 mm
02:50 PM 26.9°F-2.8°C 22.2°F-5.4°C 82% 11.5 mph N18.5 kmh N 15.0 mph24.1 kmh 29.95 in1014.2 mb - 0.00 in0.0 mm 0.00 in0.0 mm
03:00 PM 26.8°F-2.9°C 22.0°F-5.6°C 82% 11.5 mph N18.5 kmh N 20.7 mph33.3 kmh 29.94 in1013.9 mb - 0.00 in0.0 mm 0.00 in0.0 mm
03:10 PM 26.7°F-2.9°C 22.2°F-5.4°C 83% 9.2 mph NE14.8 kmh NE 16.1 mph25.9 kmh 29.94 in1013.9 mb - 0.00 in0.0 mm 0.00 in0.0 mm
03:20 PM 26.7°F-2.9°C 22.2°F-5.4°C 83% 9.2 mph NE14.8 kmh NE 18.4 mph29.6 kmh 29.94 in1013.9 mb - 0.00 in0.0 mm 0.00 in0.0 mm
03:30 PM 26.8°F-2.9°C 22.3°F-5.4°C 83% 9.2 mph NNE14.8 kmh NNE 15.0 mph24.1 kmh 29.94 in1013.9 mb - 0.00 in0.0 mm 0.00 in0.0 mm
03:40 PM 27.0°F-2.8°C 22.5°F-5.3°C 83% 10.4 mph NNE16.7 kmh NNE 13.8 mph22.2 kmh 29.94 in1013.9 mb - 0.00 in0.0 mm 0.00 in0.0 mm
03:50 PM 27.1°F-2.7°C 22.3°F-5.4°C 82% 10.4 mph NNE16.7 kmh NNE 13.8 mph22.2 kmh 29.95 in1014.2 mb - 0.00 in0.0 mm 0.00 in0.0 mm
04:00 PM 27.0°F-2.8°C 22.2°F-5.4°C 82% 10.4 mph NE16.7 kmh NE 15.0 mph24.1 kmh 29.96 in1014.6 mb - 0.00 in0.0 mm 0.00 in0.0 mm
04:10 PM 26.9°F-2.8°C 22.1°F-5.5°C 82% 9.2 mph N14.8 kmh N 17.3 mph27.8 kmh 29.97 in1014.9 mb - 0.00 in0.0 mm 0.00 in0.0 mm
04:20 PM 26.7°F-2.9°C 22.0°F-5.6°C 82% 11.5 mph NNE18.5 kmh NNE 16.1 mph25.9 kmh 29.97 in1014.9 mb - 0.00 in0.0 mm 0.00 in0.0 mm
04:30 PM 26.7°F-2.9°C 21.9°F-5.6°C 82% 11.5 mph N18.5 kmh N 19.6 mph31.5 kmh 29.98 in1015.2 mb - 0.00 in0.0 mm 0.00 in0.0 mm
04:40 PM 26.5°F-3.1°C 21.7°F-5.7°C 82% 11.5 mph 18.5 kmh 15.0 mph24.1 kmh 29.99 in1015.6 mb - 0.00 in0.0 mm 0.00 in0.0 mm
04:50 PM 26.4°F-3.1°C 21.9°F-5.6°C 83% 6.9 mph N11.1 kmh N 8.1 mph13.0 kmh 29.99 in1015.6 mb - 0.00 in0.0 mm 0.00 in0.0 mm
05:00 PM 26.3°F-3.2°C 21.6°F-5.8°C 82% 6.9 mph NNE11.1 kmh NNE 15.0 mph24.1 kmh 29.99 in1015.6 mb - 0.00 in0.0 mm 0.00 in0.0 mm
05:10 PM 26.1°F-3.3°C 21.4°F-5.9°C 82% 9.2 mph NNE14.8 kmh NNE 16.1 mph25.9 kmh 29.99 in1015.6 mb - 0.00 in0.0 mm 0.00 in0.0 mm
05:20 PM 26.1°F-3.3°C 21.4°F-5.9°C 82% 11.5 mph N18.5 kmh N 17.3 mph27.8 kmh 29.99 in1015.6 mb - 0.00 in0.0 mm 0.00 in0.0 mm
05:30 PM 26.1°F-3.3°C 21.1°F-6.1°C 81% 9.2 mph N14.8 kmh N 15.0 mph24.1 kmh 30.00 in1015.9 mb - 0.00 in0.0 mm 0.00 in0.0 mm
05:40 PM 26.0°F-3.3°C 21.0°F-6.1°C 81% 12.7 mph N20.4 kmh N 17.3 mph27.8 kmh 30.00 in1015.9 mb - 0.00 in0.0 mm 0.00 in0.0 mm
05:50 PM 26.0°F-3.3°C 21.0°F-6.1°C 81% 11.5 mph NNE18.5 kmh NNE 18.4 mph29.6 kmh 30.00 in1015.9 mb - 0.00 in0.0 mm 0.00 in0.0 mm
06:00 PM 25.8°F-3.4°C 21.1°F-6.1°C 82% 8.1 mph N13.0 kmh N 12.7 mph20.4 kmh 30.01 in1016.3 mb - 0.00 in0.0 mm 0.00 in0.0 mm
06:10 PM 25.3°F-3.7°C 20.9°F-6.2°C 83% 8.1 mph N13.0 kmh N 12.7 mph20.4 kmh 30.01 in1016.3 mb - 0.00 in0.0 mm 0.00 in0.0 mm
06:20 PM 25.1°F-3.8°C 20.7°F-6.3°C 83% 8.1 mph N13.0 kmh N 11.5 mph18.5 kmh 30.02 in1016.6 mb - 0.00 in0.0 mm 0.00 in0.0 mm
06:30 PM 24.9°F-3.9°C 20.2°F-6.6°C 82% 8.1 mph N13.0 kmh N 9.2 mph14.8 kmh 30.02 in1016.6 mb - 0.00 in0.0 mm 0.00 in0.0 mm
06:40 PM 24.7°F-4.1°C 20.0°F-6.7°C 82% 6.9 mph NNE11.1 kmh NNE 10.4 mph16.7 kmh 30.02 in1016.6 mb - 0.00 in0.0 mm 0.00 in0.0 mm
06:50 PM 24.5°F-4.2°C 19.8°F-6.8°C 82% 6.9 mph N11.1 kmh N 11.5 mph18.5 kmh 30.02 in1016.6 mb - 0.00 in0.0 mm 0.00 in0.0 mm
07:00 PM 24.3°F-4.3°C 19.6°F-6.9°C 82% 5.8 mph NNW9.3 kmh NNW 12.7 mph20.4 kmh 30.02 in1016.6 mb - 0.00 in0.0 mm 0.00 in0.0 mm
07:10 PM 23.5°F-4.7°C 18.8°F-7.3°C 82% 9.2 mph N14.8 kmh N 17.3 mph27.8 kmh 30.03 in1016.9 mb - 0.00 in0.0 mm 0.00 in0.0 mm
07:20 PM 23.0°F-5.0°C 18.6°F-7.4°C 83% 9.2 mph NNW14.8 kmh NNW 12.7 mph20.4 kmh 30.04 in1017.3 mb - 0.00 in0.0 mm 0.00 in0.0 mm
07:30 PM 22.7°F-5.2°C 18.3°F-7.6°C 83% 8.1 mph N13.0 kmh N 13.8 mph22.2 kmh 30.04 in1017.3 mb - 0.00 in0.0 mm 0.00 in0.0 mm
07:40 PM 22.6°F-5.2°C 18.2°F-7.7°C 83% 5.8 mph NNW9.3 kmh NNW 15.0 mph24.1 kmh 30.04 in1017.3 mb - 0.00 in0.0 mm 0.00 in0.0 mm
07:50 PM 22.2°F-5.4°C 17.6°F-8.0°C 82% 9.2 mph N14.8 kmh N 13.8 mph22.2 kmh 30.04 in1017.3 mb - 0.00 in0.0 mm 0.00 in0.0 mm
08:00 PM 22.0°F-5.6°C 17.4°F-8.1°C 82% 10.4 mph N16.7 kmh N 18.4 mph29.6 kmh 30.04 in1017.3 mb - 0.00 in0.0 mm 0.00 in0.0 mm
08:10 PM 22.0°F-5.6°C 17.3°F-8.2°C 82% 10.4 mph N16.7 kmh N 15.0 mph24.1 kmh 30.04 in1017.3 mb - 0.00 in0.0 mm 0.00 in0.0 mm
08:20 PM 21.8°F-5.7°C 17.2°F-8.2°C 82% 11.5 mph NNW18.5 kmh NNW 19.6 mph31.5 kmh 30.04 in1017.3 mb - 0.00 in0.0 mm 0.00 in0.0 mm
08:30 PM 21.6°F-5.8°C 16.7°F-8.5°C 81% 9.2 mph NNW14.8 kmh NNW 16.1 mph25.9 kmh 30.05 in1017.6 mb - 0.00 in0.0 mm 0.00 in0.0 mm
08:40 PM 21.6°F-5.8°C 17.0°F-8.3°C 82% 6.9 mph N11.1 kmh N 10.4 mph16.7 kmh 30.05 in1017.6 mb - 0.00 in0.0 mm 0.00 in0.0 mm
08:50 PM 21.5°F-5.8°C 16.6°F-8.6°C 81% 6.9 mph NNW11.1 kmh NNW 11.5 mph18.5 kmh 30.05 in1017.6 mb - 0.00 in0.0 mm 0.00 in0.0 mm
09:00 PM 21.4°F-5.9°C 16.5°F-8.6°C 81% 9.2 mph NNW14.8 kmh NNW 13.8 mph22.2 kmh 30.05 in1017.6 mb - 0.00 in0.0 mm 0.00 in0.0 mm
09:10 PM 21.4°F-5.9°C 16.5°F-8.6°C 81% 8.1 mph N13.0 kmh N 12.7 mph20.4 kmh 30.05 in1017.6 mb - 0.00 in0.0 mm 0.00 in0.0 mm
09:20 PM 21.4°F-5.9°C 16.5°F-8.6°C 81% 6.9 mph N11.1 kmh N 12.7 mph20.4 kmh 30.05 in1017.6 mb - 0.00 in0.0 mm 0.00 in0.0 mm
09:30 PM 21.4°F-5.9°C 16.5°F-8.6°C 81% 8.1 mph NNW13.0 kmh NNW 11.5 mph18.5 kmh 30.05 in1017.6 mb - 0.00 in0.0 mm 0.00 in0.0 mm
09:40 PM 21.2°F-6.0°C 16.0°F-8.9°C 80% 8.1 mph N13.0 kmh N 11.5 mph18.5 kmh 30.06 in1017.9 mb - 0.00 in0.0 mm 0.00 in0.0 mm
09:50 PM 20.9°F-6.2°C 15.7°F-9.1°C 80% 9.2 mph NNW14.8 kmh NNW 15.0 mph24.1 kmh 30.06 in1017.9 mb - 0.00 in0.0 mm 0.00 in0.0 mm
10:00 PM 20.6°F-6.3°C 15.4°F-9.2°C 80% 9.2 mph NNW14.8 kmh NNW 13.8 mph22.2 kmh 30.06 in1017.9 mb - 0.00 in0.0 mm 0.00 in0.0 mm
10:10 PM 20.1°F-6.6°C 14.9°F-9.5°C 80% 10.4 mph NNW16.7 kmh NNW 21.9 mph35.2 kmh 30.07 in1018.3 mb - 0.00 in0.0 mm 0.00 in0.0 mm
10:20 PM 19.0°F-7.2°C 14.2°F-9.9°C 81% 6.9 mph NNW11.1 kmh NNW 17.3 mph27.8 kmh 30.07 in1018.3 mb - 0.00 in0.0 mm 0.00 in0.0 mm
10:30 PM 18.7°F-7.4°C 13.8°F-10.1°C 81% 10.4 mph NW16.7 kmh NW 16.1 mph25.9 kmh 30.07 in1018.3 mb - 0.00 in0.0 mm 0.00 in0.0 mm
10:40 PM 18.4°F-7.6°C 13.5°F-10.3°C 81% 6.9 mph NNW11.1 kmh NNW 16.1 mph25.9 kmh 30.09 in1019.0 mb - 0.00 in0.0 mm 0.00 in0.0 mm
10:50 PM 18.6°F-7.4°C 13.5°F-10.3°C 80% 9.2 mph NNW14.8 kmh NNW 13.8 mph22.2 kmh 30.10 in1019.3 mb - 0.00 in0.0 mm 0.00 in0.0 mm
11:00 PM 18.0°F-7.8°C 12.9°F-10.6°C 80% 6.9 mph NNW11.1 kmh NNW 11.5 mph18.5 kmh 30.10 in1019.3 mb - 0.00 in0.0 mm 0.00 in0.0 mm
11:10 PM 17.5°F-8.1°C 12.1°F-11.1°C 79% 8.1 mph NW13.0 kmh NW 11.5 mph18.5 kmh 30.10 in1019.3 mb - 0.00 in0.0 mm 0.00 in0.0 mm
11:20 PM 17.0°F-8.3°C 10.8°F-11.8°C 76% 10.4 mph NNW16.7 kmh NNW 18.4 mph29.6 kmh 30.11 in1019.6 mb - 0.00 in0.0 mm 0.00 in0.0 mm
11:30 PM 16.3°F-8.7°C 9.5°F-12.5°C 74% 8.1 mph NNW13.0 kmh NNW 16.1 mph25.9 kmh 30.12 in1020.0 mb - 0.00 in0.0 mm 0.00 in0.0 mm
11:40 PM 15.5°F-9.2°C 7.8°F-13.4°C 71% 6.9 mph NNW11.1 kmh NNW 10.4 mph16.7 kmh 30.12 in1020.0 mb - 0.00 in0.0 mm 0.00 in0.0 mm
11:50 PM 14.6°F-9.7°C 7.3°F-13.7°C 72% 6.9 mph NNW11.1 kmh NNW 12.7 mph20.4 kmh 30.12 in1020.0 mb - 0.00 in0.0 mm 0.00 in0.0 mm